createdAt,value
2023-03-16T00:00:19.694Z,101878.53
2023-03-16T00:02:49.702Z,101872.41
2023-03-16T00:05:17.291Z,101869.03
2023-03-16T00:07:44.496Z,101864.72
2023-03-16T00:10:14.800Z,101863.13
2023-03-16T00:12:43.926Z,101858.00
2023-03-16T00:15:12.641Z,101858.09
2023-03-16T00:17:40.063Z,101851.38
2023-03-16T00:20:07.859Z,101847.00
2023-03-16T00:22:35.202Z,101830.63
2023-03-16T00:25:02.677Z,101842.78
2023-03-16T00:27:29.948Z,101836.78
2023-03-16T00:29:57.349Z,101840.28
2023-03-16T00:32:32.113Z,101848.06
2023-03-16T00:35:02.004Z,101840.19
2023-03-16T00:37:31.533Z,101840.19
2023-03-16T00:40:00.977Z,101845.38
2023-03-16T00:42:31.485Z,101849.69
2023-03-16T00:45:00.546Z,101847.00
2023-03-16T00:47:31.788Z,101852.19
2023-03-16T00:50:00.244Z,101848.69
2023-03-16T00:52:28.511Z,101844.34
2023-03-16T00:54:56.954Z,101839.84
2023-03-16T00:57:25.862Z,101831.97
2023-03-16T00:59:53.239Z,101831.06
2023-03-16T01:02:24.924Z,101834.50
2023-03-16T01:04:54.532Z,101824.00
2023-03-16T01:07:22.776Z,101826.69
2023-03-16T01:09:52.780Z,101826.59
2023-03-16T01:12:20.566Z,101830.00
2023-03-16T01:14:48.295Z,101818.72
2023-03-16T01:17:17.354Z,101816.91
2023-03-16T01:19:45.836Z,101811.66
2023-03-16T01:22:13.873Z,101809.06
2023-03-16T01:24:42.265Z,101806.47
2023-03-16T01:27:09.636Z,101796.09
2023-03-16T01:29:37.841Z,101785.63
2023-03-16T01:32:07.887Z,101786.59
2023-03-16T01:34:35.853Z,101779.59
2023-03-16T01:37:03.922Z,101782.28
2023-03-16T01:39:41.066Z,101782.38
2023-03-16T01:42:11.128Z,101776.38
2023-03-16T01:44:55.126Z,101778.34
2023-03-16T01:47:24.833Z,101777.53
2023-03-16T01:49:56.054Z,101772.50
2023-03-16T01:52:33.485Z,101771.88
2023-03-16T01:55:08.753Z,101769.28
2023-03-16T01:57:40.538Z,101760.84
2023-03-16T02:00:21.119Z,101770.53
2023-03-16T02:03:07.661Z,101762.00
2023-03-16T02:06:04.777Z,101760.47
2023-03-16T02:08:35.846Z,101754.53
2023-03-16T02:11:05.669Z,101745.13
2023-03-16T02:13:43.831Z,101747.81
2023-03-16T02:16:13.623Z,101744.41
2023-03-16T02:18:41.134Z,101744.47
2023-03-16T02:21:41.628Z,101728.88
2023-03-16T02:24:09.635Z,101728.97
2023-03-16T02:26:44.972Z,101729.81
2023-03-16T02:29:19.444Z,101724.75
2023-03-16T02:31:48.843Z,101719.66
2023-03-16T02:34:18.228Z,101719.75
2023-03-16T02:36:48.494Z,101719.91
2023-03-16T02:39:18.747Z,101715.59
2023-03-16T02:41:47.765Z,101708.78
2023-03-16T02:44:18.212Z,101715.84
2023-03-16T02:46:48.385Z,101702.03
2023-03-16T02:49:26.259Z,101709.09
2023-03-16T02:51:54.241Z,101699.59
2023-03-16T02:54:21.874Z,101702.38
2023-03-16T02:56:51.471Z,101702.44
2023-03-16T02:59:19.106Z,101696.50
2023-03-16T03:01:46.846Z,101697.44
2023-03-16T03:04:14.621Z,101702.75
2023-03-16T03:06:42.029Z,101699.38
2023-03-16T03:09:13.393Z,101692.63
2023-03-16T03:11:41.928Z,101688.41
2023-03-16T03:14:09.334Z,101681.50
2023-03-16T03:16:38.784Z,101687.75
2023-03-16T03:19:06.111Z,101679.19
2023-03-16T03:21:37.136Z,101680.16
2023-03-16T03:24:05.505Z,101677.75
2023-03-16T03:26:35.002Z,101674.38
2023-03-16T03:29:05.347Z,101677.16
2023-03-16T03:31:35.355Z,101675.53
2023-03-16T03:34:06.763Z,101673.91
2023-03-16T03:36:36.074Z,101662.75
2023-03-16T03:39:05.311Z,101655.94
2023-03-16T03:41:34.452Z,101656.97
2023-03-16T03:44:04.462Z,101657.88
2023-03-16T03:46:32.405Z,101653.66
2023-03-16T03:49:03.769Z,101660.69
2023-03-16T03:51:34.076Z,101662.50
2023-03-16T03:54:04.839Z,101660.03
2023-03-16T03:56:35.035Z,101665.31
2023-03-16T03:59:02.904Z,101651.50
2023-03-16T04:01:50.454Z,101647.28
2023-03-16T04:04:17.857Z,101644.75
2023-03-16T04:06:45.816Z,101650.00
2023-03-16T04:09:14.875Z,101641.41
2023-03-16T04:11:42.902Z,101638.88
2023-03-16T04:14:10.232Z,101642.44
2023-03-16T04:16:39.822Z,101633.81
2023-03-16T04:19:07.367Z,101633.00
2023-03-16T04:21:34.960Z,101633.97
2023-03-16T04:24:04.649Z,101627.88
2023-03-16T04:26:35.087Z,101614.03
2023-03-16T04:29:04.202Z,101627.13
2023-03-16T04:31:32.710Z,101628.09
2023-03-16T04:34:00.369Z,101622.00
2023-03-16T04:36:28.437Z,101610.78
2023-03-16T04:38:56.742Z,101609.09
2023-03-16T04:41:26.647Z,101607.38
2023-03-16T04:44:14.741Z,101609.97
2023-03-16T04:46:42.110Z,101599.56
2023-03-16T04:49:11.175Z,101584.84
2023-03-16T04:51:40.729Z,101588.34
2023-03-16T04:54:11.353Z,101584.84
2023-03-16T04:56:41.934Z,101587.50
2023-03-16T04:59:32.812Z,101578.91
2023-03-16T05:02:08.103Z,101575.38
2023-03-16T05:04:35.500Z,101575.47
2023-03-16T05:07:03.534Z,101576.34
2023-03-16T05:09:35.481Z,101583.34
2023-03-16T05:12:03.489Z,101568.69
2023-03-16T05:14:36.061Z,101570.50
2023-03-16T05:17:29.751Z,101574.00
2023-03-16T05:19:57.448Z,101569.75
2023-03-16T05:22:25.836Z,101564.53
2023-03-16T05:25:20.865Z,101575.03
2023-03-16T05:27:54.774Z,101563.78
2023-03-16T05:30:34.274Z,101577.72
2023-03-16T05:33:04.968Z,101579.47
2023-03-16T05:35:33.179Z,101570.88
2023-03-16T05:38:05.154Z,101573.47
2023-03-16T05:40:37.440Z,101574.44
2023-03-16T05:43:23.399Z,101572.72
2023-03-16T05:45:54.230Z,101579.75
2023-03-16T05:48:21.909Z,101572.88
2023-03-16T05:50:54.759Z,101579.09
2023-03-16T05:53:29.048Z,101580.00
2023-03-16T05:56:02.412Z,101572.25
2023-03-16T05:58:33.993Z,101566.22
2023-03-16T06:01:08.402Z,101573.22
2023-03-16T06:03:36.736Z,101572.38
2023-03-16T06:06:05.534Z,101579.38
2023-03-16T06:08:39.714Z,101582.94
2023-03-16T06:11:11.654Z,101584.72
2023-03-16T06:13:41.372Z,101588.31
2023-03-16T06:16:11.472Z,101579.66
2023-03-16T06:18:41.161Z,101579.81
2023-03-16T06:21:08.927Z,101574.69
2023-03-16T06:23:36.656Z,101579.94
2023-03-16T06:26:07.035Z,101570.47
2023-03-16T06:28:36.300Z,101581.03
2023-03-16T06:31:03.661Z,101563.69
2023-03-16T06:33:34.880Z,101579.47
2023-03-16T06:36:03.088Z,101561.31
2023-03-16T06:38:35.856Z,101570.09
2023-03-16T06:41:29.321Z,101583.22
2023-03-16T06:43:57.467Z,101572.81
2023-03-16T06:46:24.993Z,101553.84
2023-03-16T06:48:53.001Z,101566.13
2023-03-16T06:51:22.021Z,101561.88
2023-03-16T06:53:51.085Z,101553.25
2023-03-16T06:56:18.797Z,101561.13
2023-03-16T06:58:47.469Z,101557.75
2023-03-16T07:01:16.736Z,101561.31
2023-03-16T07:03:45.154Z,101556.19
2023-03-16T07:06:34.280Z,101564.00
2023-03-16T07:09:01.684Z,101564.88
2023-03-16T07:11:33.130Z,101552.00
2023-03-16T07:14:01.747Z,101552.88
2023-03-16T07:16:32.622Z,101556.38
2023-03-16T07:19:02.931Z,101558.97
2023-03-16T07:21:39.218Z,101556.38
2023-03-16T07:24:10.694Z,101566.88
2023-03-16T07:26:39.172Z,101559.91
2023-03-16T07:29:07.857Z,101560.69
2023-03-16T07:31:36.775Z,101571.13
2023-03-16T07:34:10.027Z,101569.47
2023-03-16T07:36:42.906Z,101565.16
2023-03-16T07:39:14.377Z,101573.88
2023-03-16T07:41:42.556Z,101575.56
2023-03-16T07:44:19.206Z,101566.88
2023-03-16T07:46:49.895Z,101566.94
2023-03-16T07:49:17.578Z,101566.13
2023-03-16T07:51:46.735Z,101567.91
2023-03-16T07:54:15.923Z,101571.47
2023-03-16T07:56:49.222Z,101559.31
2023-03-16T07:59:46.282Z,101560.31
2023-03-16T08:02:18.563Z,101563.03
2023-03-16T08:04:46.516Z,101561.38
2023-03-16T08:07:16.639Z,101568.47
2023-03-16T08:09:52.935Z,101582.56
2023-03-16T08:12:27.547Z,101572.41
2023-03-16T08:14:55.082Z,101575.22
2023-03-16T08:17:27.792Z,101562.31
2023-03-16T08:19:55.940Z,101562.44
2023-03-16T08:22:24.731Z,101566.94
2023-03-16T08:24:52.960Z,101563.69
2023-03-16T08:27:22.783Z,101567.28
2023-03-16T08:29:55.838Z,101562.19
2023-03-16T08:32:26.058Z,101559.66
2023-03-16T08:34:53.974Z,101563.28
2023-03-16T08:37:22.345Z,101560.75
2023-03-16T08:39:53.104Z,101560.94
2023-03-16T08:42:21.252Z,101557.56
2023-03-16T08:44:55.211Z,101551.53
2023-03-16T08:47:23.230Z,101565.59
2023-03-16T08:49:50.939Z,101560.50
2023-03-16T08:52:19.477Z,101560.53
2023-03-16T08:55:01.623Z,101553.66
2023-03-16T08:57:30.156Z,101562.50
2023-03-16T08:59:57.547Z,101560.84
2023-03-16T09:02:25.754Z,101564.38
2023-03-16T09:04:53.321Z,101564.31
2023-03-16T09:07:20.923Z,101567.81
2023-03-16T09:09:50.365Z,101563.44
2023-03-16T09:12:17.862Z,101561.69
2023-03-16T09:14:45.995Z,101580.03
2023-03-16T09:17:13.619Z,101567.88
2023-03-16T09:19:51.644Z,101566.13
2023-03-16T09:22:21.120Z,101575.88
2023-03-16T09:24:49.747Z,101569.78
2023-03-16T09:27:18.488Z,101558.53
2023-03-16T09:29:46.807Z,101562.91
2023-03-16T09:32:14.697Z,101564.75
2023-03-16T09:34:44.885Z,101557.88
2023-03-16T09:37:12.180Z,101543.19
2023-03-16T09:39:39.758Z,101551.00
2023-03-16T09:42:50.800Z,101545.00
2023-03-16T09:45:32.898Z,101539.00
2023-03-16T09:48:04.471Z,101547.09
2023-03-16T09:50:47.737Z,101542.91
2023-03-16T09:53:29.781Z,101534.28
2023-03-16T09:56:29.378Z,101530.16
2023-03-16T09:58:59.253Z,101532.09
2023-03-16T10:01:38.359Z,101529.59
2023-03-16T10:04:20.809Z,101520.09
2023-03-16T10:07:12.376Z,101527.19
2023-03-16T10:10:02.733Z,101515.16
2023-03-16T10:12:37.490Z,101513.56
2023-03-16T10:15:13.958Z,101517.31
2023-03-16T10:17:59.759Z,101499.31
2023-03-16T10:20:33.334Z,101517.00
2023-03-16T10:23:06.106Z,101515.66
2023-03-16T10:25:45.628Z,101512.47
2023-03-16T10:28:22.089Z,101520.00
2023-03-16T10:30:52.883Z,101505.50
2023-03-16T10:33:27.994Z,101521.44
2023-03-16T10:36:02.673Z,101515.41
2023-03-16T10:38:30.693Z,101507.69
2023-03-16T10:40:58.152Z,101512.81
2023-03-16T10:43:25.929Z,101514.63
2023-03-16T10:45:59.754Z,101498.06
2023-03-16T10:48:28.732Z,101484.19
2023-03-16T10:50:57.659Z,101493.00
2023-03-16T10:53:35.770Z,101499.13
2023-03-16T10:56:13.170Z,101487.81
2023-03-16T10:58:43.114Z,101478.34
2023-03-16T11:01:18.034Z,101486.34
2023-03-16T11:03:51.443Z,101483.75
2023-03-16T11:06:31.019Z,101484.56
2023-03-16T11:09:19.533Z,101473.28
2023-03-16T11:11:49.661Z,101484.69
2023-03-16T11:14:21.350Z,101480.34
2023-03-16T11:17:09.440Z,101477.59
2023-03-16T11:19:46.860Z,101480.13
2023-03-16T11:22:27.752Z,101468.75
2023-03-16T11:25:07.747Z,101464.34
2023-03-16T11:28:13.025Z,101458.22
2023-03-16T11:30:46.933Z,101448.66
2023-03-16T11:33:16.144Z,101454.66
2023-03-16T11:35:58.354Z,101440.56
2023-03-16T11:39:01.405Z,101433.56
2023-03-16T11:41:44.217Z,101436.88
2023-03-16T11:44:23.944Z,101416.81
2023-03-16T11:47:10.507Z,101422.00
2023-03-16T11:49:52.588Z,101416.72
2023-03-16T11:52:42.628Z,101415.72
2023-03-16T11:55:44.063Z,101406.25
2023-03-16T11:58:44.045Z,101406.38
2023-03-16T12:01:30.754Z,101398.66
2023-03-16T12:04:38.488Z,101397.06
2023-03-16T12:07:24.631Z,101388.47
2023-03-16T12:10:26.421Z,101392.94
2023-03-16T12:13:01.266Z,101401.69
2023-03-16T12:15:45.164Z,101387.88
2023-03-16T12:18:39.508Z,101383.72
2023-03-16T12:21:15.395Z,101375.16
2023-03-16T12:24:00.133Z,101367.34
2023-03-16T12:26:32.857Z,101371.78
2023-03-16T12:29:08.595Z,101372.78
2023-03-16T12:31:50.202Z,101373.78
2023-03-16T12:34:57.494Z,101383.47
2023-03-16T12:38:02.227Z,101375.75
2023-03-16T12:40:32.891Z,101376.00
2023-03-16T12:43:46.669Z,101354.31
2023-03-16T12:46:34.983Z,101354.44
2023-03-16T12:49:08.474Z,101350.25
2023-03-16T12:51:42.303Z,101343.50
2023-03-16T12:54:20.867Z,101360.34
2023-03-16T12:56:50.668Z,101346.66
2023-03-16T12:59:22.975Z,101333.00
2023-03-16T13:01:58.881Z,101337.53
2023-03-16T13:04:39.709Z,101335.91
2023-03-16T13:07:26.492Z,101329.16
2023-03-16T13:10:13.983Z,101318.81
2023-03-16T13:12:41.965Z,101335.44
2023-03-16T13:15:22.233Z,101321.53
2023-03-16T13:18:03.605Z,101320.75
2023-03-16T13:20:47.223Z,101310.38
2023-03-16T13:23:18.201Z,101318.34
2023-03-16T13:26:00.322Z,101308.78
2023-03-16T13:28:35.457Z,101299.38
2023-03-16T13:31:04.842Z,101296.78
2023-03-16T13:33:37.037Z,101311.69
2023-03-16T13:36:08.775Z,101298.63
2023-03-16T13:38:36.398Z,101299.53
2023-03-16T13:41:09.112Z,101295.22
2023-03-16T13:43:41.935Z,101292.69
2023-03-16T13:46:27.663Z,101294.44
2023-03-16T13:48:58.596Z,101266.53
2023-03-16T13:51:26.004Z,101274.50
2023-03-16T13:53:53.966Z,101275.41
2023-03-16T13:56:28.959Z,101267.63
2023-03-16T13:58:58.854Z,101271.22
2023-03-16T14:01:32.833Z,101265.22
2023-03-16T14:04:12.114Z,101266.22
2023-03-16T14:06:41.347Z,101261.13
2023-03-16T14:09:18.256Z,101250.88
2023-03-16T14:11:48.809Z,101254.63
2023-03-16T14:14:24.401Z,101246.88
2023-03-16T14:16:52.709Z,101243.53
2023-03-16T14:19:32.558Z,101232.25
2023-03-16T14:22:04.241Z,101231.38
2023-03-16T14:24:35.934Z,101235.75
2023-03-16T14:27:33.109Z,101226.91
2023-03-16T14:30:03.267Z,101229.47
2023-03-16T14:32:32.831Z,101226.81
2023-03-16T14:35:10.172Z,101224.09
2023-03-16T14:37:38.661Z,101219.69
2023-03-16T14:40:28.633Z,101227.56
2023-03-16T14:42:58.909Z,101222.22
2023-03-16T14:45:32.731Z,101213.53
2023-03-16T14:48:06.595Z,101211.78
2023-03-16T14:50:34.825Z,101203.91
2023-03-16T14:53:03.849Z,101198.63
2023-03-16T14:55:33.168Z,101193.34
2023-03-16T14:58:00.600Z,101193.34
2023-03-16T15:00:30.222Z,101192.44
2023-03-16T15:03:11.716Z,101194.19
2023-03-16T15:05:42.357Z,101188.06
2023-03-16T15:08:19.430Z,101184.53
2023-03-16T15:10:46.964Z,101192.44
2023-03-16T15:13:34.639Z,101195.06
2023-03-16T15:16:06.079Z,101196.84
2023-03-16T15:18:33.732Z,101189.03
2023-03-16T15:21:02.642Z,101191.72
2023-03-16T15:23:31.179Z,101181.28
2023-03-16T15:26:00.350Z,101185.75
2023-03-16T15:28:28.468Z,101182.28
2023-03-16T15:31:02.350Z,101160.50
2023-03-16T15:33:31.898Z,101171.09
2023-03-16T15:36:02.036Z,101161.47
2023-03-16T15:38:36.589Z,101160.63
2023-03-16T15:41:04.303Z,101171.13
2023-03-16T15:43:32.081Z,101158.88
2023-03-16T15:46:04.304Z,101149.19
2023-03-16T15:48:31.967Z,101151.81
2023-03-16T15:51:27.734Z,101154.44
2023-03-16T15:54:13.918Z,101147.34
2023-03-16T15:56:53.869Z,101154.38
2023-03-16T15:59:24.433Z,101159.63
2023-03-16T16:01:52.801Z,101153.50
2023-03-16T16:04:24.490Z,101147.38
2023-03-16T16:06:55.228Z,101147.38
2023-03-16T16:09:22.703Z,101136.88
2023-03-16T16:11:51.495Z,101136.88
2023-03-16T16:14:25.888Z,101147.41
2023-03-16T16:16:54.654Z,101150.91
2023-03-16T16:19:22.009Z,101149.16
2023-03-16T16:21:49.574Z,101147.38
2023-03-16T16:24:18.400Z,101149.13
2023-03-16T16:26:55.180Z,101136.00
2023-03-16T16:29:27.236Z,101126.34
2023-03-16T16:31:55.444Z,101130.75
2023-03-16T16:34:27.312Z,101122.91
2023-03-16T16:36:57.636Z,101122.91
2023-03-16T16:39:25.609Z,101115.88
2023-03-16T16:41:55.372Z,101124.63
2023-03-16T16:44:33.991Z,101124.56
2023-03-16T16:47:03.686Z,101120.16
2023-03-16T16:49:31.630Z,101118.34
2023-03-16T16:51:59.044Z,101117.38
2023-03-16T16:54:29.996Z,101101.56
2023-03-16T16:56:59.927Z,101097.16
2023-03-16T16:59:36.926Z,101093.59
2023-03-16T17:02:22.405Z,101097.03
2023-03-16T17:04:50.957Z,101103.06
2023-03-16T17:07:18.326Z,101096.06
2023-03-16T17:09:45.636Z,101084.63
2023-03-16T17:12:21.318Z,101095.09
2023-03-16T17:14:49.657Z,101085.44
2023-03-16T17:17:18.151Z,101082.78
2023-03-16T17:19:47.072Z,101081.88
2023-03-16T17:22:24.772Z,101092.31
2023-03-16T17:24:53.434Z,101093.16
2023-03-16T17:27:28.583Z,101092.22
2023-03-16T17:29:57.792Z,101094.78
2023-03-16T17:32:25.747Z,101093.88
2023-03-16T17:34:53.582Z,101099.91
2023-03-16T17:37:22.320Z,101092.00
2023-03-16T17:39:49.730Z,101104.19
2023-03-16T17:42:19.665Z,101099.72
2023-03-16T17:44:53.472Z,101091.72
2023-03-16T17:47:28.560Z,101097.72
2023-03-16T17:49:57.341Z,101100.22
2023-03-16T17:52:26.733Z,101100.97
2023-03-16T17:54:54.962Z,101104.34
2023-03-16T17:57:29.841Z,101103.31
2023-03-16T17:59:58.357Z,101102.28
2023-03-16T18:02:44.106Z,101109.16
2023-03-16T18:05:20.759Z,101101.16
2023-03-16T18:07:48.408Z,101099.25
2023-03-16T18:10:18.981Z,101107.84
2023-03-16T18:12:52.830Z,101098.97
2023-03-16T18:15:30.469Z,101092.72
2023-03-16T18:17:59.144Z,101095.25
2023-03-16T18:20:31.135Z,101093.31
2023-03-16T18:23:00.226Z,101094.09
2023-03-16T18:25:31.647Z,101101.84
2023-03-16T18:28:02.276Z,101100.00
2023-03-16T18:30:32.977Z,101093.81
2023-03-16T18:33:01.752Z,101091.06
2023-03-16T18:35:29.959Z,101078.81
2023-03-16T18:37:57.945Z,101084.88
2023-03-16T18:40:26.002Z,101071.72
2023-03-16T18:42:55.101Z,101075.19
2023-03-16T18:45:23.352Z,101062.97
2023-03-16T18:47:56.249Z,101059.47
2023-03-16T18:50:30.262Z,101059.47
2023-03-16T18:52:58.672Z,101061.25
2023-03-16T18:55:26.197Z,101063.00
2023-03-16T18:57:56.705Z,101052.56
2023-03-16T19:00:27.308Z,101049.09
2023-03-16T19:02:59.326Z,101051.75
2023-03-16T19:05:36.012Z,101043.00
2023-03-16T19:08:05.287Z,101039.53
2023-03-16T19:10:38.479Z,101035.16
2023-03-16T19:13:19.582Z,101042.13
2023-03-16T19:15:48.680Z,101024.69
2023-03-16T19:18:16.611Z,101022.09
2023-03-16T19:20:49.944Z,101029.97
2023-03-16T19:23:23.272Z,101019.50
2023-03-16T19:25:51.684Z,101010.78
2023-03-16T19:28:34.220Z,101012.53
2023-03-16T19:31:15.811Z,101011.63
2023-03-16T19:33:43.333Z,101005.50
2023-03-16T19:36:32.412Z,101017.75
2023-03-16T19:39:00.213Z,101002.91
2023-03-16T19:41:31.203Z,101010.75
2023-03-16T19:44:06.505Z,100999.41
2023-03-16T19:46:34.402Z,100995.91
2023-03-16T19:49:02.036Z,101002.84
2023-03-16T19:51:31.304Z,101005.47
2023-03-16T19:54:00.858Z,101004.53
2023-03-16T19:56:28.907Z,100994.94
2023-03-16T19:58:56.406Z,100989.66
2023-03-16T20:01:32.273Z,100989.59
2023-03-16T20:04:00.105Z,100983.44
2023-03-16T20:06:28.055Z,100985.19
2023-03-16T20:08:55.453Z,100976.47
2023-03-16T20:11:31.680Z,100980.88
2023-03-16T20:13:59.571Z,100971.25
2023-03-16T20:16:30.213Z,100966.88
2023-03-16T20:19:03.624Z,100964.25
2023-03-16T20:21:31.015Z,100972.97
2023-03-16T20:23:59.461Z,100973.84
2023-03-16T20:26:32.289Z,100975.59
2023-03-16T20:29:01.287Z,100972.09
2023-03-16T20:31:31.630Z,100968.63
2023-03-16T20:33:59.029Z,100966.00
2023-03-16T20:36:27.005Z,100965.06
2023-03-16T20:38:54.561Z,100958.06
2023-03-16T20:41:32.764Z,100962.44
2023-03-16T20:44:01.853Z,100953.66
2023-03-16T20:46:32.460Z,100945.81
2023-03-16T20:49:00.872Z,100949.25
2023-03-16T20:51:29.118Z,100948.38
2023-03-16T20:53:56.347Z,100941.38
2023-03-16T20:56:26.779Z,100936.16
2023-03-16T20:58:56.270Z,100934.41
2023-03-16T21:01:24.859Z,100941.34
2023-03-16T21:03:59.011Z,100935.22
2023-03-16T21:06:30.201Z,100935.22
2023-03-16T21:08:59.889Z,100932.59
2023-03-16T21:11:30.511Z,100936.09
2023-03-16T21:13:58.067Z,100927.38
2023-03-16T21:16:26.062Z,100922.16
2023-03-16T21:18:53.749Z,100921.28
2023-03-16T21:21:21.519Z,100916.09
2023-03-16T21:23:50.468Z,100916.09
2023-03-16T21:26:27.184Z,100908.28
2023-03-16T21:28:57.874Z,100907.47
2023-03-16T21:31:25.900Z,100920.59
2023-03-16T21:33:54.654Z,100925.81
2023-03-16T21:36:26.862Z,100914.53
2023-03-16T21:38:55.900Z,100913.69
2023-03-16T21:41:23.564Z,100930.31
2023-03-16T21:43:52.016Z,100914.69
2023-03-16T21:46:21.700Z,100918.22
2023-03-16T21:48:52.655Z,100914.78
2023-03-16T21:51:25.131Z,100912.22
2023-03-16T21:53:53.558Z,100911.38
2023-03-16T21:56:25.513Z,100900.06
2023-03-16T21:58:54.471Z,100903.56
2023-03-16T22:01:33.006Z,100907.09
2023-03-16T22:04:09.043Z,100908.00
2023-03-16T22:06:36.872Z,100897.59
2023-03-16T22:09:04.754Z,100888.91
2023-03-16T22:11:32.467Z,100896.81
2023-03-16T22:14:00.297Z,100886.34
2023-03-16T22:16:31.651Z,100878.53
2023-03-16T22:18:59.332Z,100877.66
2023-03-16T22:21:38.124Z,100877.69
2023-03-16T22:24:28.188Z,100876.84
2023-03-16T22:26:56.871Z,100874.25
2023-03-16T22:29:30.362Z,100873.38
2023-03-16T22:32:08.579Z,100868.09
2023-03-16T22:34:44.148Z,100859.41
2023-03-16T22:37:16.636Z,100872.50
2023-03-16T22:39:45.758Z,100874.25
2023-03-16T22:42:19.504Z,100872.53
2023-03-16T22:44:47.109Z,100867.25
2023-03-16T22:47:26.612Z,100864.69
2023-03-16T22:49:54.916Z,100877.78
2023-03-16T22:52:28.628Z,100881.22
2023-03-16T22:54:57.960Z,100869.91
2023-03-16T22:57:25.533Z,100865.53
2023-03-16T22:59:53.330Z,100860.28
2023-03-16T23:02:24.539Z,100872.50
2023-03-16T23:04:52.432Z,100871.63
2023-03-16T23:07:20.198Z,100866.34
2023-03-16T23:09:48.570Z,100875.94
2023-03-16T23:12:20.589Z,100868.09
2023-03-16T23:14:48.075Z,100866.28
2023-03-16T23:17:22.243Z,100861.91
2023-03-16T23:19:49.732Z,100867.97
2023-03-16T23:22:17.810Z,100868.81
2023-03-16T23:24:45.816Z,100875.69
2023-03-16T23:27:22.888Z,100874.75
2023-03-16T23:29:50.245Z,100861.59
2023-03-16T23:32:17.649Z,100865.91
2023-03-16T23:34:45.134Z,100856.19
2023-03-16T23:37:12.753Z,100850.91
2023-03-16T23:39:40.206Z,100850.81
2023-03-16T23:42:07.892Z,100846.41
2023-03-16T23:44:35.812Z,100841.09
2023-03-16T23:47:03.108Z,100851.44
2023-03-16T23:49:35.886Z,100852.19
2023-03-16T23:52:03.959Z,100855.69
2023-03-16T23:54:32.675Z,100839.94
2023-03-16T23:56:59.977Z,100853.91
2023-03-16T23:59:28.696Z,100857.34
